createdAt,value
2022-08-05T00:00:53.433Z,99.9
2022-08-05T00:04:57.397Z,99.9
2022-08-05T00:06:59.417Z,99.9
2022-08-05T00:09:02.380Z,99.9
2022-08-05T00:11:04.424Z,99.9
2022-08-05T00:13:09.507Z,99.9
2022-08-05T00:17:18.520Z,99.9
2022-08-05T00:18:21.570Z,99.9
2022-08-05T00:20:20.440Z,99.9
2022-08-05T00:22:20.114Z,99.9
2022-08-05T00:24:24.882Z,99.9
2022-08-05T00:28:29.444Z,99.9
2022-08-05T00:32:33.298Z,99.9
2022-08-05T00:37:09.859Z,99.9
2022-08-05T00:42:48.214Z,99.9
2022-08-05T00:50:54.501Z,99.9
2022-08-05T00:52:56.543Z,99.9
2022-08-05T00:55:02.315Z,99.9
2022-08-05T00:57:04.325Z,99.9
2022-08-05T00:59:06.952Z,99.9
2022-08-05T01:01:08.746Z,99.9
2022-08-05T01:03:10.417Z,99.9
2022-08-05T01:09:20.083Z,99.9
2022-08-05T01:11:22.451Z,99.9
2022-08-05T01:14:28.395Z,99.9
2022-08-05T01:16:28.112Z,99.9
2022-08-05T01:18:30.113Z,99.9
2022-08-05T01:22:37.211Z,99.9
2022-08-05T01:24:39.262Z,99.9
2022-08-05T01:34:49.337Z,99.9
2022-08-05T01:38:56.465Z,99.9
2022-08-05T01:40:58.456Z,99.9
2022-08-05T01:43:00.462Z,99.9
2022-08-05T01:45:03.198Z,99.9
2022-08-05T01:49:23.291Z,99.9
2022-08-05T01:59:19.683Z,99.9
2022-08-05T02:01:24.701Z,99.9
2022-08-05T02:03:24.175Z,99.9
2022-08-05T02:05:28.902Z,99.9
2022-08-05T02:07:31.884Z,99.9
2022-08-05T02:09:33.880Z,99.9
2022-08-05T02:10:36.430Z,99.9
2022-08-05T02:12:38.486Z,99.9
2022-08-05T02:14:40.463Z,99.9
2022-08-05T02:16:42.539Z,99.9
2022-08-05T02:18:47.590Z,99.9
2022-08-05T02:20:49.618Z,99.9
2022-08-05T02:24:53.668Z,99.9
2022-08-05T02:26:55.673Z,99.9
2022-08-05T02:28:58.097Z,99.9
2022-08-05T02:30:59.722Z,99.9
2022-08-05T02:33:04.809Z,99.9
2022-08-05T02:35:13.464Z,99.9
2022-08-05T02:43:15.345Z,99.9
2022-08-05T02:45:16.953Z,99.9
2022-08-05T02:51:28.203Z,99.9
2022-08-05T02:59:47.798Z,99.9
2022-08-05T03:06:55.283Z,99.9
2022-08-05T03:10:02.176Z,99.9
2022-08-05T03:28:26.159Z,99.9
2022-08-05T03:30:30.133Z,99.9
2022-08-05T03:38:37.497Z,99.9
2022-08-05T03:40:38.327Z,99.9
2022-08-05T03:44:45.355Z,99.9
2022-08-05T03:55:49.808Z,99.9
2022-08-05T03:57:00.553Z,99.9
2022-08-05T03:59:02.579Z,99.9
2022-08-05T04:02:07.132Z,99.9
2022-08-05T04:04:10.818Z,99.9
2022-08-05T04:06:11.183Z,99.9
2022-08-05T04:10:18.291Z,99.9
2022-08-05T04:12:23.542Z,99.9
2022-08-05T04:14:29.479Z,99.9
2022-08-05T04:16:25.391Z,99.9
2022-08-05T04:18:26.355Z,99.9
2022-08-05T04:20:28.372Z,99.9
2022-08-05T04:22:30.392Z,99.9
2022-08-05T04:24:35.522Z,99.9
2022-08-05T04:26:37.499Z,99.9
2022-08-05T04:28:39.532Z,99.9
2022-08-05T04:34:45.576Z,99.9
2022-08-05T04:36:50.083Z,99.9
2022-08-05T04:40:56.243Z,99.9
2022-08-05T04:42:58.260Z,99.9
2022-08-05T04:49:04.283Z,99.9
2022-08-05T04:57:15.412Z,99.9
2022-08-05T04:58:21.537Z,99.9
2022-08-05T05:00:23.355Z,99.9
2022-08-05T05:02:36.998Z,99.9
2022-08-05T05:04:24.021Z,99.9
2022-08-05T05:12:36.821Z,99.9
2022-08-05T05:20:46.346Z,99.9
2022-08-05T05:22:48.346Z,99.9
2022-08-05T05:24:57.794Z,99.9
2022-08-05T05:28:54.421Z,99.9
2022-08-05T05:30:56.447Z,99.9
2022-08-05T05:33:00.522Z,99.9
2022-08-05T05:35:03.556Z,99.9
2022-08-05T05:37:05.576Z,99.9
2022-08-05T05:39:09.357Z,99.9
2022-08-05T05:43:11.613Z,99.9
2022-08-05T05:47:30.594Z,99.9
2022-08-05T05:49:22.957Z,99.9
2022-08-05T05:51:22.776Z,99.9
2022-08-05T05:53:24.780Z,99.9
2022-08-05T05:54:49.772Z,99.9
2022-08-05T05:58:32.310Z,99.9
2022-08-05T06:02:38.459Z,99.9
2022-08-05T06:04:40.511Z,99.9
2022-08-05T06:06:42.671Z,99.9
2022-08-05T06:08:44.477Z,99.9
2022-08-05T06:14:51.844Z,99.9
2022-08-05T06:16:55.599Z,99.9
2022-08-05T06:18:57.624Z,99.9
2022-08-05T06:25:24.994Z,99.9
2022-08-05T06:27:05.697Z,99.9
2022-08-05T06:29:43.018Z,99.9
2022-08-05T06:31:17.976Z,99.9
2022-08-05T06:33:19.028Z,99.9
2022-08-05T06:36:02.970Z,99.9
2022-08-05T06:37:39.412Z,99.9
2022-08-05T06:39:21.718Z,99.9
2022-08-05T06:41:22.924Z,99.9
2022-08-05T06:43:51.565Z,99.9
2022-08-05T06:46:03.369Z,99.9
2022-08-05T06:48:37.163Z,99.9
2022-08-05T06:49:59.834Z,99.9
2022-08-05T06:51:56.587Z,99.9
2022-08-05T06:53:58.601Z,99.9
2022-08-05T06:56:00.581Z,99.9
2022-08-05T06:58:29.089Z,99.9
2022-08-05T07:00:07.662Z,99.9
2022-08-05T07:02:09.663Z,99.9
2022-08-05T07:06:13.905Z,99.9
2022-08-05T07:08:15.613Z,99.9
2022-08-05T07:12:22.687Z,99.9
2022-08-05T07:14:29.084Z,99.9
2022-08-05T07:20:33.522Z,99.9
2022-08-05T07:22:32.615Z,99.9
2022-08-05T07:24:43.724Z,99.9
2022-08-05T07:30:43.627Z,99.9
2022-08-05T07:34:47.588Z,99.9
2022-08-05T07:42:58.603Z,99.9
2022-08-05T07:46:03.129Z,93.3
2022-08-05T07:48:05.112Z,94.1
2022-08-05T07:50:07.100Z,87.4
2022-08-05T07:52:09.051Z,86.9
2022-08-05T07:54:14.097Z,79.7
2022-08-05T07:57:00.265Z,79.4
2022-08-05T08:04:37.501Z,81.8
2022-08-05T08:06:28.246Z,76.1
2022-08-05T08:08:30.983Z,72.4
2022-08-05T08:10:32.962Z,67.5
2022-08-05T08:12:48.724Z,63.8
2022-08-05T08:14:36.870Z,63.6
2022-08-05T08:16:50.044Z,63.8
2022-08-05T08:18:40.777Z,66.6
2022-08-05T08:21:02.201Z,62.5
2022-08-05T08:22:47.797Z,55.6
2022-08-05T08:24:51.344Z,54.5
2022-08-05T08:28:59.251Z,51.8
2022-08-05T08:30:55.580Z,51
2022-08-05T08:32:57.521Z,50.6
2022-08-05T08:34:59.509Z,50.5
2022-08-05T08:37:05.476Z,55.7
2022-08-05T08:39:06.500Z,56.1
2022-08-05T08:41:08.613Z,56.8
2022-08-05T08:42:32.381Z,59
2022-08-05T08:45:20.090Z,60
2022-08-05T08:46:16.213Z,57
2022-08-05T08:48:36.189Z,55.9
2022-08-05T08:52:23.824Z,54.6
2022-08-05T08:54:27.448Z,54.3
2022-08-05T08:56:27.486Z,54.2
2022-08-05T08:58:43.523Z,54
2022-08-05T09:00:31.415Z,53.6
2022-08-05T09:02:33.279Z,52.6
2022-08-05T09:04:57.907Z,51.9
2022-08-05T09:10:44.143Z,51
2022-08-05T09:12:46.070Z,51.2
2022-08-05T09:18:55.929Z,51.3
2022-08-05T09:20:57.840Z,51.3
2022-08-05T09:25:02.160Z,51.2
2022-08-05T09:27:03.619Z,51.1
2022-08-05T09:29:05.537Z,50.7
2022-08-05T09:31:22.949Z,50.7
2022-08-05T09:33:15.336Z,50.3
2022-08-05T09:35:26.295Z,50.1
2022-08-05T09:37:16.916Z,50
2022-08-05T09:42:24.444Z,46.2
2022-08-05T09:44:24.711Z,45.9
2022-08-05T09:46:29.756Z,44.9
2022-08-05T09:50:38.000Z,44.6
2022-08-05T09:52:35.545Z,44.2
2022-08-05T09:54:37.470Z,44.1
2022-08-05T09:56:39.425Z,43.9
2022-08-05T09:58:42.056Z,43.1
2022-08-05T10:00:46.361Z,41.3
2022-08-05T10:02:48.302Z,40.5
2022-08-05T10:04:50.198Z,39.7
2022-08-05T10:06:58.836Z,39.2
2022-08-05T10:08:55.329Z,38.9
2022-08-05T10:10:55.925Z,38.3
2022-08-05T10:17:05.470Z,37.8
2022-08-05T10:19:09.496Z,37.9
2022-08-05T10:25:14.247Z,37.8
2022-08-05T10:27:14.868Z,37.6
2022-08-05T10:29:24.030Z,36.8
2022-08-05T10:32:52.340Z,36.4
2022-08-05T10:33:25.076Z,36.2
2022-08-05T10:35:58.962Z,35.9
2022-08-05T10:37:49.495Z,35.9
2022-08-05T10:40:04.019Z,35.8
2022-08-05T10:42:00.716Z,35.7
2022-08-05T10:43:59.279Z,35.7
2022-08-05T10:46:06.822Z,35.8
2022-08-05T10:48:29.694Z,35.6
2022-08-05T10:50:32.175Z,34.3
2022-08-05T10:52:10.487Z,33.5
2022-08-05T10:54:23.234Z,33.1
2022-08-05T10:56:21.651Z,32.6
2022-08-05T10:58:15.720Z,32.8
2022-08-05T11:08:38.233Z,32.9
2022-08-05T11:14:57.861Z,32.4
2022-08-05T11:16:47.861Z,32.6
2022-08-05T11:18:36.760Z,32.7
2022-08-05T11:20:38.958Z,32.7
2022-08-05T11:22:42.352Z,32.6
2022-08-05T11:25:01.590Z,33.1
2022-08-05T11:26:49.643Z,33.2
2022-08-05T11:28:49.321Z,33.1
2022-08-05T11:31:57.607Z,32.9
2022-08-05T11:36:07.415Z,32.5
2022-08-05T11:38:28.730Z,32.3
2022-08-05T11:40:04.597Z,32.4
2022-08-05T11:42:06.285Z,32.3
2022-08-05T11:44:08.630Z,32.2
2022-08-05T11:46:27.107Z,32.5
2022-08-05T11:52:18.822Z,31.9
2022-08-05T11:54:20.766Z,31.6
2022-08-05T11:56:22.601Z,31.4
2022-08-05T11:58:24.511Z,31.8
2022-08-05T12:00:27.545Z,32.1
2022-08-05T12:02:31.531Z,32.2
2022-08-05T12:04:30.126Z,32.4
2022-08-05T12:06:35.113Z,33.2
2022-08-05T12:08:37.023Z,33.4
2022-08-05T12:10:44.961Z,33.8
2022-08-05T12:14:43.361Z,34.7
2022-08-05T12:16:45.297Z,34.9
2022-08-05T12:18:52.261Z,35
2022-08-05T12:22:53.293Z,34.8
2022-08-05T12:24:55.201Z,34.6
2022-08-05T12:25:57.697Z,34.3
2022-08-05T12:27:59.556Z,34.2
2022-08-05T12:30:03.376Z,33.9
2022-08-05T12:32:04.563Z,33.8
2022-08-05T12:34:08.358Z,34.1
2022-08-05T12:36:10.289Z,34.2
2022-08-05T12:38:12.113Z,34.4
2022-08-05T12:40:26.487Z,34.9
2022-08-05T12:42:15.889Z,35.5
2022-08-05T12:48:32.479Z,36
2022-08-05T12:50:26.522Z,35.8
2022-08-05T12:52:30.392Z,35.4
2022-08-05T12:54:30.327Z,35.3
2022-08-05T12:56:35.126Z,35.1
2022-08-05T12:58:50.507Z,35.2
2022-08-05T13:02:04.440Z,35.5
2022-08-05T13:02:41.091Z,36.6
2022-08-05T13:04:54.627Z,37
2022-08-05T13:06:51.569Z,37.2
2022-08-05T13:08:52.333Z,37.1
2022-08-05T13:10:50.472Z,36.7
2022-08-05T13:21:00.935Z,37
2022-08-05T13:22:03.484Z,37.1
2022-08-05T13:24:05.345Z,37.2
2022-08-05T13:26:07.220Z,37.4
2022-08-05T13:28:10.463Z,37.4
2022-08-05T13:30:34.544Z,36.6
2022-08-05T13:32:21.490Z,36.3
2022-08-05T13:34:20.345Z,36.1
2022-08-05T13:36:19.674Z,36.1
2022-08-05T13:40:36.525Z,36.1
2022-08-05T13:42:25.309Z,36.3
2022-08-05T13:48:57.963Z,35.9
2022-08-05T13:52:37.699Z,36
2022-08-05T13:54:39.530Z,36
2022-08-05T13:56:51.114Z,36.1
2022-08-05T13:58:53.057Z,36.1
2022-08-05T14:00:48.187Z,35.8
2022-08-05T14:02:50.094Z,35.8
2022-08-05T14:04:52.041Z,36
2022-08-05T14:06:58.716Z,36
2022-08-05T14:08:55.633Z,36.3
2022-08-05T14:10:59.834Z,37.2
2022-08-05T14:13:02.454Z,38.1
2022-08-05T14:16:05.386Z,38.5
2022-08-05T14:17:06.288Z,38.5
2022-08-05T14:19:28.992Z,37.6
2022-08-05T14:22:08.525Z,37.5
2022-08-05T14:23:36.324Z,37.1
2022-08-05T14:25:37.622Z,36.9
2022-08-05T14:27:40.293Z,37.1
2022-08-05T14:29:41.351Z,37.2
2022-08-05T14:32:02.883Z,37.3
2022-08-05T14:33:59.056Z,37.7
2022-08-05T14:35:50.100Z,37.9
2022-08-05T14:39:57.110Z,38.5
2022-08-05T14:42:19.640Z,38.7
2022-08-05T14:48:05.084Z,38.9
2022-08-05T14:50:06.769Z,38.9
2022-08-05T14:52:05.049Z,39.2
2022-08-05T14:56:11.916Z,39.3
2022-08-05T15:00:15.717Z,39.5
2022-08-05T15:04:20.446Z,39.8
2022-08-05T15:06:21.399Z,40.1
2022-08-05T15:08:57.997Z,40.3
2022-08-05T15:12:41.044Z,39.4
2022-08-05T15:13:46.139Z,38.9
2022-08-05T15:15:54.238Z,38.6
2022-08-05T15:17:47.202Z,38.4
2022-08-05T15:19:38.974Z,38.3
2022-08-05T15:21:43.440Z,37.9
2022-08-05T15:23:45.359Z,37.9
2022-08-05T15:25:52.126Z,37.9
2022-08-05T15:27:52.338Z,37.7
2022-08-05T15:29:51.015Z,37.5
2022-08-05T15:31:53.189Z,37.7
2022-08-05T15:34:18.524Z,41
2022-08-05T15:35:59.758Z,43.3
2022-08-05T15:42:05.452Z,46.1
2022-08-05T15:44:07.411Z,46.4
2022-08-05T15:46:09.258Z,46.4
2022-08-05T15:48:13.963Z,46.7
2022-08-05T15:52:29.635Z,47.2
2022-08-05T15:54:19.815Z,47.6
2022-08-05T15:56:29.143Z,48.1
2022-08-05T15:58:23.599Z,48.6
2022-08-05T16:02:28.493Z,48.9
2022-08-05T16:04:32.371Z,47.6
2022-08-05T16:06:34.264Z,47
2022-08-05T16:08:36.167Z,46.6
2022-08-05T16:13:42.410Z,46
2022-08-05T16:20:03.456Z,46.7
2022-08-05T16:21:58.515Z,47.3
2022-08-05T16:30:02.056Z,46.1
2022-08-05T16:32:09.676Z,45.7
2022-08-05T16:34:09.544Z,45.3
2022-08-05T16:42:27.946Z,46.1
2022-08-05T16:44:18.410Z,43.9
2022-08-05T16:46:24.747Z,41.3
2022-08-05T16:48:33.957Z,40.7
2022-08-05T16:50:27.236Z,40
2022-08-05T16:52:32.578Z,40.4
2022-08-05T16:54:33.122Z,42.8
2022-08-05T16:56:32.947Z,44
2022-08-05T16:58:34.873Z,43.8
2022-08-05T17:02:41.784Z,43.6
2022-08-05T17:04:43.695Z,42.3
2022-08-05T17:05:48.945Z,41.8
2022-08-05T17:07:54.662Z,41.1
2022-08-05T17:09:49.991Z,40.8
2022-08-05T17:11:56.115Z,40.5
2022-08-05T17:14:05.517Z,39.6
2022-08-05T17:16:19.477Z,38.6
2022-08-05T17:18:00.683Z,38.2
2022-08-05T17:20:02.552Z,37.7
2022-08-05T17:22:04.461Z,37.6
2022-08-05T17:24:19.368Z,37.5
2022-08-05T17:26:08.194Z,37.4
2022-08-05T17:28:15.590Z,37.8
2022-08-05T17:30:19.278Z,38
2022-08-05T17:32:17.780Z,38
2022-08-05T17:34:18.776Z,38
2022-08-05T17:36:33.783Z,38.1
2022-08-05T17:38:22.465Z,38.2
2022-08-05T17:40:24.378Z,38.2
2022-08-05T17:44:32.567Z,38.4
2022-08-05T17:46:33.009Z,38.4
2022-08-05T17:48:34.879Z,38.4
2022-08-05T17:50:36.783Z,38.3
2022-08-05T17:52:53.326Z,38.2
2022-08-05T17:54:40.493Z,38
2022-08-05T17:56:45.482Z,38.3
2022-08-05T17:58:47.323Z,38.2
2022-08-05T18:00:50.714Z,38.1
2022-08-05T18:03:06.037Z,38.2
2022-08-05T18:05:08.240Z,38.3
2022-08-05T18:07:12.415Z,38.2
2022-08-05T18:09:14.772Z,38
2022-08-05T18:11:23.934Z,38
2022-08-05T18:13:18.559Z,37.9
2022-08-05T18:15:20.456Z,37.9
2022-08-05T18:18:00.441Z,38.9
2022-08-05T18:19:26.065Z,39.2
2022-08-05T18:21:28.172Z,39.5
2022-08-05T18:23:35.181Z,40.3
2022-08-05T18:25:33.354Z,40.6
2022-08-05T18:27:34.982Z,40.8
2022-08-05T18:29:40.766Z,41.5
2022-08-05T18:31:42.893Z,43.4
2022-08-05T18:33:47.135Z,44.7
2022-08-05T18:35:59.805Z,45.6
2022-08-05T18:37:47.808Z,47.1
2022-08-05T18:41:50.345Z,47.4
2022-08-05T18:41:56.810Z,48
2022-08-05T18:43:53.673Z,48.3
2022-08-05T18:50:00.329Z,49.6
2022-08-05T18:52:08.785Z,50.2
2022-08-05T18:54:06.731Z,50.4
2022-08-05T18:56:12.652Z,50.6
2022-08-05T18:57:15.190Z,50.7
2022-08-05T18:59:43.058Z,50.7
2022-08-05T19:01:17.796Z,50.8
2022-08-05T19:03:17.529Z,50.9
2022-08-05T19:06:13.369Z,51.2
2022-08-05T19:07:24.680Z,51.4
2022-08-05T19:09:26.738Z,51.7
2022-08-05T19:15:59.020Z,52.5
2022-08-05T19:18:08.114Z,52.6
2022-08-05T19:19:47.102Z,53
2022-08-05T19:21:41.999Z,53
2022-08-05T19:24:05.424Z,53.1
2022-08-05T19:25:46.114Z,53.1
2022-08-05T19:27:48.153Z,53.2
2022-08-05T19:29:50.229Z,53.3
2022-08-05T19:31:52.259Z,53.4
2022-08-05T19:33:57.377Z,53.9
2022-08-05T19:35:59.475Z,54.1
2022-08-05T19:38:06.575Z,54.3
2022-08-05T19:40:10.057Z,54.5
2022-08-05T19:42:09.100Z,54.7
2022-08-05T19:44:13.625Z,54.9
2022-08-05T19:46:28.923Z,55.1
2022-08-05T19:48:14.853Z,55.6
2022-08-05T19:50:16.908Z,55.8
2022-08-05T19:52:40.278Z,56
2022-08-05T19:54:03.459Z,56.2
2022-08-05T19:57:46.504Z,56.6
2022-08-05T20:01:32.860Z,57.4
2022-08-05T20:07:48.836Z,58.1
2022-08-05T20:09:54.567Z,58.4
2022-08-05T20:11:48.190Z,59.8
2022-08-05T20:13:59.092Z,60
2022-08-05T20:15:55.781Z,60.7
2022-08-05T20:17:52.342Z,60.9
2022-08-05T20:19:57.048Z,60.9
2022-08-05T20:21:56.503Z,61.3
2022-08-05T20:23:58.516Z,61.5
2022-08-05T20:26:00.606Z,61.9
2022-08-05T20:28:02.641Z,62.3
2022-08-05T20:30:07.787Z,63.2
2022-08-05T20:32:10.387Z,64.9
2022-08-05T20:34:12.501Z,65.6
2022-08-05T20:36:14.246Z,66.2
2022-08-05T20:38:26.854Z,68.3
2022-08-05T20:40:18.104Z,68.4
2022-08-05T20:44:29.942Z,68.1
2022-08-05T20:46:27.343Z,67.6
2022-08-05T20:48:29.436Z,67.4
2022-08-05T20:49:37.905Z,67.2
2022-08-05T20:51:34.064Z,67.3
2022-08-05T20:53:40.638Z,67.5
2022-08-05T20:57:44.655Z,68.5
2022-08-05T21:00:11.180Z,68.9
2022-08-05T21:01:47.559Z,69.3
2022-08-05T21:03:49.533Z,69.7
2022-08-05T21:05:54.608Z,70.1
2022-08-05T21:07:53.686Z,70.4
2022-08-05T21:09:55.756Z,70.6
2022-08-05T21:12:09.282Z,71.2
2022-08-05T21:14:02.954Z,71.3
2022-08-05T21:16:05.070Z,71.6
2022-08-05T21:18:07.106Z,72.4
2022-08-05T21:20:09.907Z,72.8
2022-08-05T21:22:11.278Z,73.3
2022-08-05T21:24:15.595Z,74.3
2022-08-05T21:26:18.464Z,76.7
2022-08-05T21:28:23.622Z,76.9
2022-08-05T21:30:23.878Z,77.9
2022-08-05T21:32:27.209Z,78.9
2022-08-05T21:36:30.142Z,81.3
2022-08-05T21:38:30.892Z,83.2
2022-08-05T21:42:43.884Z,86.6
2022-08-05T21:44:40.168Z,87.8
2022-08-05T21:49:02.991Z,89.7
2022-08-05T21:51:25.077Z,90.3
2022-08-05T21:55:12.328Z,91.7
2022-08-05T21:57:31.483Z,92.5
2022-08-05T22:05:27.233Z,96
2022-08-05T22:07:46.716Z,98
2022-08-05T22:11:35.126Z,99
2022-08-05T22:14:19.745Z,99.4
2022-08-05T22:16:02.532Z,99.5
2022-08-05T22:20:01.750Z,99.8
2022-08-05T22:21:46.841Z,99.8
2022-08-05T22:24:01.836Z,99.8
2022-08-05T22:26:10.774Z,99.8
2022-08-05T22:28:04.943Z,99.9
2022-08-05T22:29:55.164Z,99.9
2022-08-05T22:38:06.512Z,99.8
2022-08-05T22:40:08.601Z,99.8
2022-08-05T22:41:11.174Z,99.7
2022-08-05T22:43:13.243Z,99.7
2022-08-05T22:45:15.307Z,99.7
2022-08-05T22:47:29.304Z,99.6
2022-08-05T22:50:17.549Z,99.7
2022-08-05T22:52:05.351Z,99.8
2022-08-05T22:53:26.636Z,99.8
2022-08-05T22:59:48.265Z,99.9
2022-08-05T23:03:58.000Z,99.9
2022-08-05T23:05:42.153Z,99.9
2022-08-05T23:07:45.440Z,99.9
2022-08-05T23:09:57.225Z,99.9
2022-08-05T23:13:51.636Z,99.9
2022-08-05T23:15:52.593Z,99.9
2022-08-05T23:19:59.746Z,99.9
2022-08-05T23:22:01.848Z,99.9
2022-08-05T23:24:03.989Z,99.9
2022-08-05T23:26:05.986Z,99.9
2022-08-05T23:28:08.067Z,99.9
2022-08-05T23:30:10.731Z,99.9
2022-08-05T23:32:15.243Z,99.9
2022-08-05T23:34:24.554Z,99.9
2022-08-05T23:36:19.417Z,99.9
2022-08-05T23:37:21.974Z,99.9
2022-08-05T23:39:44.386Z,99.9
2022-08-05T23:41:26.113Z,99.9
2022-08-05T23:45:33.337Z,99.9
2022-08-05T23:47:35.397Z,99.9
2022-08-05T23:51:41.589Z,99.9
2022-08-05T23:53:46.656Z,99.9
2022-08-05T23:55:43.702Z,99.9
